createdAt,value
2023-05-09T00:02:08.532Z,47.04
2023-05-09T00:04:36.690Z,47.05
2023-05-09T00:07:04.634Z,47.35
2023-05-09T00:09:32.558Z,47.00
2023-05-09T00:12:02.613Z,46.96
2023-05-09T00:14:30.554Z,44.00
2023-05-09T00:16:59.309Z,47.10
2023-05-09T00:19:27.216Z,44.56
2023-05-09T00:21:55.628Z,47.23
2023-05-09T00:24:23.631Z,47.15
2023-05-09T00:26:51.528Z,46.90
2023-05-09T00:29:20.774Z,44.17
2023-05-09T00:31:48.759Z,43.02
2023-05-09T00:34:16.749Z,43.58
2023-05-09T00:36:44.626Z,45.74
2023-05-09T00:39:12.668Z,43.76
2023-05-09T00:41:40.634Z,44.59
2023-05-09T00:44:08.529Z,45.43
2023-05-09T00:46:37.853Z,44.39
2023-05-09T00:49:06.311Z,45.42
2023-05-09T00:51:34.488Z,45.38
2023-05-09T00:54:02.409Z,46.30
2023-05-09T00:56:30.454Z,46.80
2023-05-09T00:58:58.414Z,47.16
2023-05-09T01:01:26.353Z,45.97
2023-05-09T01:03:56.514Z,44.47
2023-05-09T01:06:28.729Z,44.98
2023-05-09T01:09:00.768Z,47.18
2023-05-09T01:11:33.709Z,45.99
2023-05-09T01:14:09.637Z,46.80
2023-05-09T01:16:41.805Z,44.33
2023-05-09T01:19:29.008Z,45.27
2023-05-09T01:21:58.701Z,44.84
2023-05-09T01:24:35.671Z,45.12
2023-05-09T01:27:30.263Z,44.83
2023-05-09T01:29:59.588Z,46.31
2023-05-09T01:32:29.863Z,46.10
2023-05-09T01:35:01.348Z,45.79
2023-05-09T01:37:32.915Z,45.67
2023-05-09T01:40:07.143Z,47.95
2023-05-09T01:42:40.712Z,46.22
2023-05-09T01:45:11.554Z,47.33
2023-05-09T01:47:41.297Z,47.80
2023-05-09T01:50:11.455Z,48.10
2023-05-09T01:52:40.576Z,48.36
2023-05-09T01:55:09.207Z,46.92
2023-05-09T01:57:37.782Z,49.05
2023-05-09T02:00:07.955Z,47.65
2023-05-09T02:02:37.725Z,48.88
2023-05-09T02:05:06.636Z,48.63
2023-05-09T02:07:34.840Z,48.95
2023-05-09T02:10:04.894Z,48.63
2023-05-09T02:12:32.865Z,48.43
2023-05-09T02:15:00.772Z,48.64
2023-05-09T02:17:30.868Z,47.98
2023-05-09T02:20:00.242Z,49.03
2023-05-09T02:22:28.527Z,48.21
2023-05-09T02:24:56.546Z,48.50
2023-05-09T02:27:24.851Z,48.98
2023-05-09T02:29:56.340Z,49.59
2023-05-09T02:32:25.786Z,48.65
2023-05-09T02:34:54.557Z,49.78
2023-05-09T02:37:24.338Z,48.90
2023-05-09T02:39:52.282Z,50.29
2023-05-09T02:42:22.697Z,49.91
2023-05-09T02:44:50.624Z,49.65
2023-05-09T02:47:18.594Z,49.80
2023-05-09T02:49:46.516Z,49.85
2023-05-09T02:52:14.473Z,49.91
2023-05-09T02:54:43.781Z,50.71
2023-05-09T02:57:11.852Z,49.89
2023-05-09T02:59:39.740Z,50.89
2023-05-09T03:02:07.652Z,50.40
2023-05-09T03:04:35.955Z,50.98
2023-05-09T03:07:03.873Z,50.34
2023-05-09T03:09:31.776Z,50.71
2023-05-09T03:12:01.099Z,50.95
2023-05-09T03:14:28.997Z,50.87
2023-05-09T03:16:56.904Z,51.23
2023-05-09T03:19:25.224Z,51.11
2023-05-09T03:21:53.232Z,50.92
2023-05-09T03:24:21.140Z,51.02
2023-05-09T03:26:49.015Z,51.51
2023-05-09T03:29:18.300Z,51.82
2023-05-09T03:31:46.253Z,51.68
2023-05-09T03:34:15.408Z,51.75
2023-05-09T03:36:43.707Z,52.33
2023-05-09T03:39:11.728Z,52.13
2023-05-09T03:41:39.672Z,52.28
2023-05-09T03:44:07.942Z,52.00
2023-05-09T03:46:37.318Z,52.22
2023-05-09T03:49:05.426Z,52.16
2023-05-09T03:51:33.652Z,52.07
2023-05-09T03:54:01.545Z,52.10
2023-05-09T03:56:29.451Z,51.80
2023-05-09T03:58:57.350Z,52.58
2023-05-09T04:01:25.278Z,52.40
2023-05-09T04:03:54.658Z,52.14
2023-05-09T04:06:22.640Z,52.53
2023-05-09T04:08:50.704Z,52.23
2023-05-09T04:11:18.618Z,52.49
2023-05-09T04:13:46.519Z,52.60
2023-05-09T04:16:14.544Z,52.42
2023-05-09T04:18:42.864Z,52.74
2023-05-09T04:21:12.177Z,52.92
2023-05-09T04:23:40.102Z,52.90
2023-05-09T04:26:09.691Z,53.34
2023-05-09T04:28:37.594Z,52.63
2023-05-09T04:31:06.601Z,53.18
2023-05-09T04:33:34.718Z,53.21
2023-05-09T04:36:03.030Z,53.18
2023-05-09T04:38:32.345Z,53.26
2023-05-09T04:41:00.232Z,53.02
2023-05-09T04:43:28.401Z,52.99
2023-05-09T04:45:56.368Z,52.92
2023-05-09T04:48:24.283Z,52.70
2023-05-09T04:50:52.212Z,52.88
2023-05-09T04:53:20.460Z,53.32
2023-05-09T04:55:49.773Z,52.77
2023-05-09T04:58:17.709Z,52.51
2023-05-09T05:00:45.629Z,52.75
2023-05-09T05:03:13.618Z,54.69
2023-05-09T05:05:41.724Z,53.55
2023-05-09T05:08:09.730Z,53.72
2023-05-09T05:10:37.668Z,53.13
2023-05-09T05:13:07.019Z,53.43
2023-05-09T05:15:34.963Z,53.50
2023-05-09T05:18:02.890Z,53.66
2023-05-09T05:20:30.975Z,53.39
2023-05-09T05:22:58.861Z,52.76
2023-05-09T05:25:26.933Z,52.80
2023-05-09T05:27:54.824Z,52.72
2023-05-09T05:30:24.198Z,52.52
2023-05-09T05:32:52.145Z,52.53
2023-05-09T05:35:22.528Z,52.70
2023-05-09T05:37:50.524Z,53.22
2023-05-09T05:40:18.508Z,53.16
2023-05-09T05:42:46.709Z,53.35
2023-05-09T05:45:14.986Z,53.13
2023-05-09T05:47:44.561Z,52.86
2023-05-09T05:50:13.083Z,52.44
2023-05-09T05:52:41.502Z,52.87
2023-05-09T05:55:10.045Z,53.48
2023-05-09T05:57:39.158Z,54.29
2023-05-09T06:00:10.809Z,52.51
2023-05-09T06:02:38.796Z,52.49
2023-05-09T06:05:09.411Z,53.08
2023-05-09T06:07:37.328Z,53.68
2023-05-09T06:10:05.872Z,53.33
2023-05-09T06:12:33.804Z,52.75
2023-05-09T06:15:01.749Z,52.50
2023-05-09T06:17:29.812Z,54.22
2023-05-09T06:19:57.759Z,52.55
2023-05-09T06:22:27.084Z,52.72
2023-05-09T06:24:54.997Z,53.30
2023-05-09T06:27:23.011Z,52.91
2023-05-09T06:29:52.713Z,52.05
2023-05-09T06:32:21.183Z,53.00
2023-05-09T06:34:49.120Z,51.86
2023-05-09T06:37:17.073Z,51.28
2023-05-09T06:39:46.375Z,51.37
2023-05-09T06:42:14.307Z,50.23
2023-05-09T06:44:43.785Z,50.84
2023-05-09T06:47:11.873Z,52.27
2023-05-09T06:49:39.820Z,51.15
2023-05-09T06:52:07.708Z,50.70
2023-05-09T06:54:35.612Z,50.74
2023-05-09T06:57:05.048Z,51.45
2023-05-09T06:59:33.068Z,50.53
2023-05-09T07:02:01.208Z,49.83
2023-05-09T07:04:29.211Z,49.66
2023-05-09T07:06:57.160Z,51.22
2023-05-09T07:09:28.002Z,50.47
2023-05-09T07:11:56.082Z,50.24
2023-05-09T07:14:25.350Z,49.83
2023-05-09T07:16:53.314Z,49.38
2023-05-09T07:19:21.262Z,49.35
2023-05-09T07:21:49.246Z,50.16
2023-05-09T07:24:17.198Z,48.45
2023-05-09T07:26:45.076Z,49.98
2023-05-09T07:29:12.968Z,51.64
2023-05-09T07:31:42.260Z,50.46
2023-05-09T07:34:10.200Z,50.52
2023-05-09T07:39:11.176Z,50.08
2023-05-09T07:41:39.104Z,49.99
2023-05-09T07:44:07.100Z,49.93
2023-05-09T07:46:35.056Z,50.41
2023-05-09T07:49:04.419Z,49.70
2023-05-09T07:51:32.354Z,49.08
2023-05-09T07:54:00.273Z,50.60
2023-05-09T07:56:28.196Z,49.55
2023-05-09T07:58:56.094Z,49.33
2023-05-09T08:01:24.079Z,49.06
2023-05-09T08:03:52.086Z,50.47
2023-05-09T08:06:21.520Z,49.26
2023-05-09T08:08:49.566Z,49.07
2023-05-09T08:11:17.504Z,47.89
2023-05-09T08:13:46.084Z,48.60
2023-05-09T08:16:14.091Z,46.37
2023-05-09T08:18:42.031Z,47.20
2023-05-09T08:21:09.980Z,48.62
2023-05-09T08:23:40.645Z,46.78
2023-05-09T08:26:08.621Z,48.51
2023-05-09T08:28:36.553Z,46.96
2023-05-09T08:31:04.592Z,48.21
2023-05-09T08:33:32.724Z,48.13
2023-05-09T08:36:00.639Z,46.51
2023-05-09T08:38:28.697Z,47.14
2023-05-09T08:41:02.999Z,46.50
2023-05-09T08:43:31.056Z,45.76
2023-05-09T08:46:00.488Z,47.35
2023-05-09T08:48:29.850Z,47.40
2023-05-09T08:50:58.052Z,46.79
2023-05-09T08:53:26.808Z,44.71
2023-05-09T08:55:54.878Z,46.51
2023-05-09T08:58:24.388Z,45.32
2023-05-09T09:00:52.491Z,45.30
2023-05-09T09:03:20.580Z,45.29
2023-05-09T09:05:49.284Z,45.40
2023-05-09T09:08:17.697Z,44.08
2023-05-09T09:10:47.514Z,44.83
2023-05-09T09:13:16.775Z,45.40
2023-05-09T09:15:47.388Z,45.29
2023-05-09T09:18:24.873Z,43.50
2023-05-09T09:20:57.960Z,43.45
2023-05-09T09:23:27.302Z,45.89
2023-05-09T09:26:00.332Z,45.02
2023-05-09T09:28:28.700Z,44.75
2023-05-09T09:30:58.148Z,44.89
2023-05-09T09:33:27.158Z,43.27
2023-05-09T09:35:56.448Z,44.97
2023-05-09T09:38:25.249Z,43.85
2023-05-09T09:40:56.747Z,41.88
2023-05-09T09:43:31.839Z,43.79
2023-05-09T09:46:04.020Z,40.40
2023-05-09T09:48:33.987Z,42.57
2023-05-09T09:51:05.409Z,39.58
2023-05-09T09:53:40.275Z,41.89
2023-05-09T09:56:08.586Z,41.55
2023-05-09T09:58:36.830Z,38.48
2023-05-09T10:01:10.355Z,39.00
2023-05-09T10:03:39.575Z,40.72
2023-05-09T10:06:11.342Z,40.57
2023-05-09T10:08:39.339Z,36.94
2023-05-09T10:11:07.459Z,40.11
2023-05-09T10:13:36.542Z,37.20
2023-05-09T10:16:05.596Z,38.62
2023-05-09T10:18:35.839Z,39.87
2023-05-09T10:21:05.307Z,40.20
2023-05-09T10:23:36.230Z,36.50
2023-05-09T10:26:08.391Z,35.43
2023-05-09T10:28:38.025Z,38.41
2023-05-09T10:31:09.206Z,35.37
2023-05-09T10:33:44.635Z,33.79
2023-05-09T10:36:13.414Z,38.71
2023-05-09T10:38:41.771Z,35.36
2023-05-09T10:41:10.348Z,36.64
2023-05-09T10:43:38.322Z,38.03
2023-05-09T10:46:06.987Z,35.44
2023-05-09T10:48:35.119Z,37.62
2023-05-09T10:51:05.226Z,34.43
2023-05-09T10:53:43.589Z,37.65
2023-05-09T10:56:23.823Z,34.76
2023-05-09T10:58:51.912Z,38.24
2023-05-09T11:01:30.560Z,34.82
2023-05-09T11:03:59.977Z,34.23
2023-05-09T11:06:48.959Z,37.33
2023-05-09T11:09:28.563Z,37.71
2023-05-09T11:11:58.114Z,37.26
2023-05-09T11:14:33.217Z,36.53
2023-05-09T11:17:04.637Z,36.51
2023-05-09T11:19:58.164Z,36.21
2023-05-09T11:22:28.852Z,36.19
2023-05-09T11:25:10.220Z,36.08
2023-05-09T11:27:42.468Z,35.51
2023-05-09T11:30:15.512Z,34.05
2023-05-09T11:32:46.674Z,35.76
2023-05-09T11:35:17.111Z,35.26
2023-05-09T11:37:51.131Z,34.93
2023-05-09T11:40:19.915Z,35.54
2023-05-09T11:42:50.051Z,34.67
2023-05-09T11:45:18.801Z,35.14
2023-05-09T11:47:47.277Z,30.96
2023-05-09T11:50:16.536Z,34.81
2023-05-09T11:52:45.274Z,34.93
2023-05-09T11:55:15.567Z,35.15
2023-05-09T11:57:45.696Z,30.88
2023-05-09T12:00:15.529Z,31.74
2023-05-09T12:02:45.452Z,34.24
2023-05-09T12:05:15.100Z,34.32
2023-05-09T12:07:43.724Z,34.83
2023-05-09T12:10:15.771Z,34.68
2023-05-09T12:12:45.153Z,34.39
2023-05-09T12:15:14.255Z,34.29
2023-05-09T12:17:43.510Z,32.46
2023-05-09T12:20:12.584Z,32.41
2023-05-09T12:22:43.549Z,33.74
2023-05-09T12:25:12.473Z,29.17
2023-05-09T12:27:42.661Z,33.03
2023-05-09T12:30:14.051Z,33.96
2023-05-09T12:32:42.900Z,30.63
2023-05-09T12:35:11.491Z,30.40
2023-05-09T12:37:39.807Z,30.21
2023-05-09T12:40:12.606Z,33.83
2023-05-09T12:42:46.078Z,28.75
2023-05-09T12:45:14.812Z,31.91
2023-05-09T12:47:43.178Z,33.42
2023-05-09T12:50:12.691Z,29.81
2023-05-09T12:52:54.669Z,29.37
2023-05-09T12:55:30.549Z,29.95
2023-05-09T12:58:01.521Z,29.47
2023-05-09T13:00:29.784Z,29.65
2023-05-09T13:02:57.922Z,30.77
2023-05-09T13:05:26.281Z,29.17
2023-05-09T13:07:58.128Z,32.59
2023-05-09T13:10:28.426Z,30.76
2023-05-09T13:12:56.530Z,32.19
2023-05-09T13:15:26.853Z,32.33
2023-05-09T13:17:55.511Z,33.45
2023-05-09T13:20:23.670Z,29.51
2023-05-09T13:22:51.572Z,29.48
2023-05-09T13:25:20.393Z,30.54
2023-05-09T13:27:48.305Z,31.15
2023-05-09T13:30:16.730Z,29.93
2023-05-09T13:32:47.556Z,30.50
2023-05-09T13:35:16.299Z,31.66
2023-05-09T13:37:44.321Z,30.47
2023-05-09T13:40:13.046Z,30.38
2023-05-09T13:42:41.248Z,30.97
2023-05-09T13:45:10.075Z,29.91
2023-05-09T13:47:38.686Z,34.14
2023-05-09T13:50:09.534Z,29.28
2023-05-09T13:52:37.460Z,31.95
2023-05-09T13:55:05.992Z,31.33
2023-05-09T13:57:33.925Z,29.35
2023-05-09T14:00:01.896Z,31.80
2023-05-09T14:02:29.834Z,28.72
2023-05-09T14:04:58.913Z,30.76
2023-05-09T14:07:28.329Z,31.52
2023-05-09T14:10:10.462Z,28.03
2023-05-09T14:12:40.715Z,28.88
2023-05-09T14:15:09.685Z,29.25
2023-05-09T14:17:37.905Z,29.10
2023-05-09T14:20:06.716Z,29.16
2023-05-09T14:22:36.219Z,33.15
2023-05-09T14:25:04.161Z,29.31
2023-05-09T14:27:32.070Z,31.47
2023-05-09T14:30:00.007Z,32.64
2023-05-09T14:32:27.893Z,29.31
2023-05-09T14:34:55.838Z,32.31
2023-05-09T14:37:23.823Z,28.47
2023-05-09T14:39:53.137Z,28.41
2023-05-09T14:42:21.526Z,30.26
2023-05-09T14:44:50.027Z,30.28
2023-05-09T14:47:17.994Z,28.35
2023-05-09T14:49:45.942Z,30.69
2023-05-09T14:52:13.829Z,30.33
2023-05-09T14:54:41.940Z,27.45
2023-05-09T14:57:11.696Z,30.90
2023-05-09T14:59:39.633Z,28.88
2023-05-09T15:02:08.138Z,30.50
2023-05-09T15:04:36.087Z,32.10
2023-05-09T15:07:06.090Z,31.69
2023-05-09T15:09:34.063Z,31.41
2023-05-09T15:12:02.034Z,30.61
2023-05-09T15:14:31.391Z,31.71
2023-05-09T15:17:02.835Z,32.06
2023-05-09T15:19:32.586Z,32.04
2023-05-09T15:22:00.961Z,31.35
2023-05-09T15:24:28.902Z,32.08
2023-05-09T15:26:56.910Z,32.75
2023-05-09T15:29:24.883Z,32.35
2023-05-09T15:31:55.514Z,32.14
2023-05-09T15:34:23.500Z,32.19
2023-05-09T15:36:51.428Z,32.06
2023-05-09T15:39:19.328Z,31.45
2023-05-09T15:41:47.222Z,30.92
2023-05-09T15:44:16.245Z,29.02
2023-05-09T15:46:44.303Z,28.44
2023-05-09T15:49:13.607Z,30.33
2023-05-09T15:51:42.270Z,29.22
2023-05-09T15:54:10.277Z,29.85
2023-05-09T15:56:38.190Z,29.82
2023-05-09T15:59:06.376Z,30.27
2023-05-09T16:01:35.405Z,31.36
2023-05-09T16:04:03.550Z,32.13
2023-05-09T16:06:33.690Z,32.26
2023-05-09T16:09:02.348Z,31.56
2023-05-09T16:11:30.251Z,31.84
2023-05-09T16:13:58.249Z,31.46
2023-05-09T16:16:26.296Z,31.82
2023-05-09T16:18:54.320Z,31.33
2023-05-09T16:21:22.881Z,30.87
2023-05-09T16:23:52.169Z,30.59
2023-05-09T16:26:20.127Z,31.92
2023-05-09T16:28:48.022Z,32.20
2023-05-09T16:31:15.925Z,32.99
2023-05-09T16:33:44.006Z,33.32
2023-05-09T16:36:11.888Z,34.07
2023-05-09T16:38:39.816Z,33.46
2023-05-09T16:41:09.092Z,33.63
2023-05-09T16:43:37.212Z,34.00
2023-05-09T16:46:05.869Z,32.31
2023-05-09T16:48:33.848Z,34.72
2023-05-09T16:51:01.746Z,33.91
2023-05-09T16:53:29.682Z,34.59
2023-05-09T16:55:57.741Z,34.78
2023-05-09T16:58:27.028Z,34.81
2023-05-09T17:00:55.385Z,33.95
2023-05-09T17:03:23.324Z,35.01
2023-05-09T17:05:51.280Z,34.47
2023-05-09T17:08:19.252Z,33.62
2023-05-09T17:10:47.128Z,34.99
2023-05-09T17:13:15.083Z,35.36
2023-05-09T17:15:45.139Z,35.49
2023-05-09T17:18:17.066Z,35.94
2023-05-09T17:20:47.372Z,35.85
2023-05-09T17:23:15.312Z,36.17
2023-05-09T17:25:43.531Z,36.28
2023-05-09T17:28:11.658Z,36.38
2023-05-09T17:30:40.510Z,36.78
2023-05-09T17:33:09.833Z,36.82
2023-05-09T17:35:38.100Z,37.31
2023-05-09T17:38:06.452Z,37.44
2023-05-09T17:40:34.354Z,36.14
2023-05-09T17:43:02.355Z,37.08
2023-05-09T17:45:30.245Z,37.79
2023-05-09T17:47:58.642Z,38.46
2023-05-09T17:50:27.990Z,37.04
2023-05-09T17:52:57.031Z,38.27
2023-05-09T17:55:25.059Z,38.28
2023-05-09T17:57:52.932Z,37.41
2023-05-09T18:00:21.117Z,38.32
2023-05-09T18:02:51.119Z,36.32
2023-05-09T18:05:19.296Z,37.41
2023-05-09T18:07:49.570Z,36.76
2023-05-09T18:10:17.680Z,36.89
2023-05-09T18:12:45.929Z,38.80
2023-05-09T18:15:14.056Z,38.76
2023-05-09T18:17:42.019Z,39.27
2023-05-09T18:20:10.650Z,39.68
2023-05-09T18:22:38.568Z,39.07
2023-05-09T18:25:08.734Z,38.30
2023-05-09T18:27:36.639Z,39.26
2023-05-09T18:30:04.988Z,38.98
2023-05-09T18:32:33.197Z,38.77
2023-05-09T18:35:01.172Z,36.40
2023-05-09T18:37:29.079Z,39.00
2023-05-09T18:39:57.185Z,36.79
2023-05-09T18:42:26.978Z,36.09
2023-05-09T18:44:56.925Z,39.59
2023-05-09T18:47:25.057Z,38.50
2023-05-09T18:49:52.946Z,38.27
2023-05-09T18:52:22.604Z,36.81
2023-05-09T18:54:50.555Z,35.82
2023-05-09T18:57:19.884Z,37.81
2023-05-09T18:59:51.818Z,39.25
2023-05-09T19:02:20.595Z,39.02
2023-05-09T19:04:50.421Z,38.58
2023-05-09T19:07:18.399Z,38.74
2023-05-09T19:09:46.299Z,39.00
2023-05-09T19:12:16.402Z,39.22
2023-05-09T19:14:44.563Z,38.47
2023-05-09T19:17:13.819Z,38.54
2023-05-09T19:19:42.088Z,35.65
2023-05-09T19:22:10.024Z,39.30
2023-05-09T19:24:37.918Z,39.23
2023-05-09T19:27:07.636Z,35.61
2023-05-09T19:29:35.967Z,36.20
2023-05-09T19:32:04.993Z,39.59
2023-05-09T19:34:34.431Z,39.10
2023-05-09T19:37:02.385Z,39.24
2023-05-09T19:39:30.590Z,39.17
2023-05-09T19:42:00.456Z,38.56
2023-05-09T19:44:28.758Z,38.96
2023-05-09T19:46:58.534Z,37.70
2023-05-09T19:49:26.882Z,35.61
2023-05-09T19:51:56.185Z,39.04
2023-05-09T19:54:26.486Z,38.92
2023-05-09T19:56:54.504Z,38.88
2023-05-09T19:59:22.605Z,38.36
2023-05-09T20:01:50.529Z,35.89
2023-05-09T20:04:21.715Z,38.62
2023-05-09T20:06:49.734Z,38.01
2023-05-09T20:09:21.013Z,38.50
2023-05-09T20:11:49.231Z,37.16
2023-05-09T20:14:17.423Z,37.51
2023-05-09T20:16:45.528Z,38.86
2023-05-09T20:19:15.081Z,38.46
2023-05-09T20:21:43.005Z,35.93
2023-05-09T20:24:11.836Z,38.46
2023-05-09T20:26:41.137Z,38.49
2023-05-09T20:29:09.056Z,38.40
2023-05-09T20:31:36.957Z,38.56
2023-05-09T20:34:04.946Z,38.26
2023-05-09T20:36:32.867Z,38.58
2023-05-09T20:39:00.842Z,38.44
2023-05-09T20:41:28.794Z,38.49
2023-05-09T20:44:03.532Z,38.70
2023-05-09T20:46:31.668Z,37.80
2023-05-09T20:48:59.576Z,38.76
2023-05-09T20:51:27.576Z,38.34
2023-05-09T20:53:55.472Z,38.04
2023-05-09T20:56:23.437Z,38.39
2023-05-09T20:58:51.368Z,38.33
2023-05-09T21:01:20.668Z,37.85
2023-05-09T21:03:48.840Z,37.97
2023-05-09T21:06:16.753Z,35.06
2023-05-09T21:08:44.697Z,35.69
2023-05-09T21:11:12.579Z,38.49
2023-05-09T21:13:40.542Z,36.12
2023-05-09T21:16:08.612Z,37.76
2023-05-09T21:18:38.125Z,35.05
2023-05-09T21:21:08.059Z,38.42
2023-05-09T21:23:35.967Z,38.23
2023-05-09T21:26:04.048Z,38.17
2023-05-09T21:28:32.764Z,38.06
2023-05-09T21:31:01.820Z,33.24
2023-05-09T21:33:30.003Z,35.38
2023-05-09T21:35:59.420Z,36.06
2023-05-09T21:38:27.297Z,37.86
2023-05-09T21:40:55.373Z,37.82
2023-05-09T21:43:23.292Z,37.38
2023-05-09T21:45:51.200Z,37.55
2023-05-09T21:48:19.128Z,37.08
2023-05-09T21:50:47.131Z,34.04
2023-05-09T21:53:16.384Z,36.89
2023-05-09T21:55:44.312Z,37.41
2023-05-09T21:58:12.176Z,37.44
2023-05-09T22:00:40.216Z,36.65
2023-05-09T22:03:08.556Z,35.76
2023-05-09T22:05:36.575Z,36.06
2023-05-09T22:08:04.632Z,34.16
2023-05-09T22:10:34.151Z,33.96
2023-05-09T22:13:02.271Z,32.97
2023-05-09T22:15:30.375Z,35.42
2023-05-09T22:17:58.350Z,36.66
2023-05-09T22:20:26.310Z,33.25
2023-05-09T22:22:54.241Z,34.21
2023-05-09T22:25:22.149Z,33.54
2023-05-09T22:27:51.446Z,36.97
2023-05-09T22:30:19.385Z,35.70
2023-05-09T22:32:47.298Z,37.07
2023-05-09T22:35:15.235Z,36.11
2023-05-09T22:37:43.151Z,37.03
2023-05-09T22:40:11.736Z,37.25
2023-05-09T22:42:39.634Z,37.81
2023-05-09T22:45:10.138Z,33.93
2023-05-09T22:47:38.264Z,35.71
2023-05-09T22:50:07.258Z,34.53
2023-05-09T22:52:35.185Z,35.40
2023-05-09T22:55:03.367Z,35.60
2023-05-09T22:57:31.823Z,38.25
2023-05-09T22:59:59.739Z,37.37
2023-05-09T23:02:29.060Z,34.45
2023-05-09T23:04:57.441Z,34.82
2023-05-09T23:07:25.437Z,35.45
2023-05-09T23:09:53.336Z,35.46
2023-05-09T23:12:21.248Z,38.80
2023-05-09T23:14:49.227Z,35.85
2023-05-09T23:17:17.244Z,39.17
2023-05-09T23:19:47.036Z,39.20
2023-05-09T23:22:14.937Z,37.68
2023-05-09T23:24:42.913Z,37.63
2023-05-09T23:27:10.800Z,38.60
2023-05-09T23:29:38.705Z,40.19
2023-05-09T23:32:06.645Z,39.95
2023-05-09T23:34:36.232Z,40.24
2023-05-09T23:37:05.687Z,39.96
2023-05-09T23:39:33.688Z,39.96
2023-05-09T23:42:01.602Z,38.56
2023-05-09T23:44:30.141Z,40.75
2023-05-09T23:46:58.271Z,40.82
2023-05-09T23:49:26.259Z,41.08
2023-05-09T23:51:54.156Z,40.95
2023-05-09T23:54:24.468Z,40.69
2023-05-09T23:56:52.411Z,41.59
2023-05-09T23:59:20.292Z,41.53
